createdAt,value
2023-04-10T00:02:00.579Z,102133.31
2023-04-10T00:04:28.522Z,102118.25
2023-04-10T00:06:55.488Z,102109.81
2023-04-10T00:09:22.130Z,102106.16
2023-04-10T00:11:48.702Z,102098.13
2023-04-10T00:14:15.325Z,102102.31
2023-04-10T00:16:41.850Z,102088.38
2023-04-10T00:19:08.642Z,102096.69
2023-04-10T00:21:35.134Z,102087.72
2023-04-10T00:24:01.691Z,102091.25
2023-04-10T00:26:28.217Z,102096.69
2023-04-10T00:28:54.686Z,102086.94
2023-04-10T00:31:21.204Z,102081.19
2023-04-10T00:33:47.684Z,102061.84
2023-04-10T00:36:14.239Z,102068.38
2023-04-10T00:38:40.713Z,102069.69
2023-04-10T00:41:07.460Z,102059.16
2023-04-10T00:43:33.966Z,102049.09
2023-04-10T00:46:00.791Z,102054.53
2023-04-10T00:48:27.662Z,102061.38
2023-04-10T00:50:54.310Z,102058.81
2023-04-10T00:53:22.069Z,102055.47
2023-04-10T00:55:49.993Z,102056.75
2023-04-10T00:58:16.692Z,102055.78
2023-04-10T01:00:43.250Z,102058.00
2023-04-10T01:03:12.737Z,102043.97
2023-04-10T01:05:46.303Z,102036.91
2023-04-10T01:08:22.839Z,102039.00
2023-04-10T01:10:58.612Z,102037.06
2023-04-10T01:13:32.979Z,102034.50
2023-04-10T01:16:08.399Z,102027.31
2023-04-10T01:18:54.008Z,102030.81
2023-04-10T01:21:22.592Z,102036.22
2023-04-10T01:24:21.655Z,102031.59
2023-04-10T01:26:53.727Z,102020.59
2023-04-10T01:29:21.253Z,102025.38
2023-04-10T01:32:01.743Z,102023.31
2023-04-10T01:34:36.071Z,102025.03
2023-04-10T01:37:08.546Z,102016.72
2023-04-10T01:39:39.367Z,102014.63
2023-04-10T01:42:08.882Z,102016.72
2023-04-10T01:44:38.077Z,102017.69
2023-04-10T01:47:07.226Z,102005.56
2023-04-10T01:49:35.383Z,101997.75
2023-04-10T01:52:02.394Z,102005.25
2023-04-10T01:54:31.591Z,101998.69
2023-04-10T01:56:59.852Z,102006.06
2023-04-10T01:59:26.821Z,102003.81
2023-04-10T02:02:01.391Z,102000.13
2023-04-10T02:04:28.288Z,102001.25
2023-04-10T02:07:05.089Z,101998.53
2023-04-10T02:09:50.276Z,101992.94
2023-04-10T02:12:22.499Z,101994.72
2023-04-10T02:14:50.643Z,101997.09
2023-04-10T02:17:23.341Z,101992.66
2023-04-10T02:19:53.182Z,101988.47
2023-04-10T02:22:20.508Z,101986.56
2023-04-10T02:24:47.335Z,101990.53
2023-04-10T02:27:13.856Z,101981.59
2023-04-10T02:29:40.452Z,101975.69
2023-04-10T02:32:07.077Z,101978.75
2023-04-10T02:34:33.536Z,101979.53
2023-04-10T02:37:00.006Z,101982.22
2023-04-10T02:39:26.517Z,101982.53
2023-04-10T02:41:53.020Z,101975.03
2023-04-10T02:44:19.530Z,101971.81
2023-04-10T02:46:47.141Z,101977.09
2023-04-10T02:49:14.020Z,101978.22
2023-04-10T02:51:40.476Z,101985.22
2023-04-10T02:54:06.897Z,101982.53
2023-04-10T02:56:34.957Z,101988.56
2023-04-10T02:59:01.595Z,101988.84
2023-04-10T03:01:28.127Z,101976.84
2023-04-10T03:03:54.928Z,101990.56
2023-04-10T03:06:23.596Z,101994.53
2023-04-10T03:08:50.133Z,101994.38
2023-04-10T03:11:16.653Z,101987.50
2023-04-10T03:13:43.104Z,101978.56
2023-04-10T03:16:09.699Z,101982.88
2023-04-10T03:18:36.563Z,101982.88
2023-04-10T03:21:03.118Z,101985.41
2023-04-10T03:23:29.553Z,101979.00
2023-04-10T03:25:56.241Z,101982.97
2023-04-10T03:28:22.819Z,101979.28
2023-04-10T03:30:52.077Z,101974.97
2023-04-10T03:33:18.587Z,101969.56
2023-04-10T03:35:48.501Z,101973.88
2023-04-10T03:38:15.042Z,101971.81
2023-04-10T03:40:41.527Z,101969.44
2023-04-10T03:43:08.107Z,101972.50
2023-04-10T03:45:34.650Z,101963.41
2023-04-10T03:48:01.173Z,101959.41
2023-04-10T03:50:28.021Z,101958.13
2023-04-10T03:52:54.563Z,101964.63
2023-04-10T03:55:21.334Z,101956.81
2023-04-10T03:57:48.653Z,101955.56
2023-04-10T04:00:16.677Z,101950.41
2023-04-10T04:02:43.463Z,101954.22
2023-04-10T04:05:10.385Z,101949.75
2023-04-10T04:07:36.933Z,101942.59
2023-04-10T04:10:03.743Z,101940.88
2023-04-10T04:12:30.381Z,101937.41
2023-04-10T04:14:57.121Z,101939.59
2023-04-10T04:17:23.632Z,101931.00
2023-04-10T04:19:50.199Z,101925.72
2023-04-10T04:22:16.898Z,101924.59
2023-04-10T04:24:43.350Z,101926.19
2023-04-10T04:27:09.806Z,101920.16
2023-04-10T04:29:36.243Z,101934.69
2023-04-10T04:32:02.725Z,101929.56
2023-04-10T04:34:29.251Z,101934.00
2023-04-10T04:36:55.747Z,101920.31
2023-04-10T04:41:49.850Z,101920.50
2023-04-10T04:44:16.321Z,101910.44
2023-04-10T04:46:44.616Z,101917.31
2023-04-10T04:49:11.496Z,101911.88
2023-04-10T04:51:38.204Z,101911.41
2023-04-10T04:54:05.274Z,101912.03
2023-04-10T04:56:31.772Z,101913.00
2023-04-10T04:58:58.245Z,101913.47
2023-04-10T05:01:25.076Z,101909.97
2023-04-10T05:03:51.679Z,101913.44
2023-04-10T05:06:18.740Z,101912.31
2023-04-10T05:08:45.329Z,101912.19
2023-04-10T05:11:11.796Z,101905.97
2023-04-10T05:13:38.285Z,101905.66
2023-04-10T05:16:05.060Z,101902.13
2023-04-10T05:18:31.698Z,101885.41
2023-04-10T05:20:58.231Z,101893.53
2023-04-10T05:23:24.685Z,101894.50
2023-04-10T05:25:51.261Z,101900.88
2023-04-10T05:28:17.747Z,101901.56
2023-04-10T05:30:44.797Z,101903.44
2023-04-10T05:33:11.362Z,101903.44
2023-04-10T05:35:37.980Z,101902.81
2023-04-10T05:38:04.566Z,101896.94
2023-04-10T05:40:31.261Z,101897.25
2023-04-10T05:42:58.928Z,101887.69
2023-04-10T05:45:25.571Z,101890.59
2023-04-10T05:47:52.037Z,101893.47
2023-04-10T05:50:18.568Z,101887.91
2023-04-10T05:52:46.664Z,101893.84
2023-04-10T05:55:13.115Z,101889.03
2023-04-10T05:57:39.819Z,101892.25
2023-04-10T06:00:06.955Z,101887.91
2023-04-10T06:02:33.694Z,101887.44
2023-04-10T06:05:00.711Z,101881.22
2023-04-10T06:07:27.795Z,101874.53
2023-04-10T06:09:54.285Z,101883.81
2023-04-10T06:12:20.810Z,101879.50
2023-04-10T06:14:48.041Z,101876.28
2023-04-10T06:17:14.490Z,101875.03
2023-04-10T06:19:41.027Z,101869.59
2023-04-10T06:22:07.465Z,101864.03
2023-04-10T06:24:33.915Z,101861.59
2023-04-10T06:27:00.882Z,101854.91
2023-04-10T06:29:27.598Z,101852.03
2023-04-10T06:31:54.167Z,101845.31
2023-04-10T06:34:21.009Z,101830.47
2023-04-10T06:36:47.486Z,101831.56
2023-04-10T06:39:13.950Z,101833.31
2023-04-10T06:41:40.476Z,101827.88
2023-04-10T06:44:06.971Z,101826.94
2023-04-10T06:46:33.586Z,101821.34
2023-04-10T06:49:00.153Z,101811.72
2023-04-10T06:51:27.755Z,101812.19
2023-04-10T06:53:54.247Z,101808.19
2023-04-10T06:56:21.083Z,101807.06
2023-04-10T06:58:47.561Z,101805.13
2023-04-10T07:01:14.216Z,101804.47
2023-04-10T07:03:40.822Z,101804.13
2023-04-10T07:06:08.394Z,101800.94
2023-04-10T07:08:34.836Z,101789.28
2023-04-10T07:11:01.347Z,101789.91
2023-04-10T07:13:28.195Z,101779.00
2023-04-10T07:15:54.799Z,101764.59
2023-04-10T07:18:21.324Z,101763.75
2023-04-10T07:20:48.537Z,101759.69
2023-04-10T07:23:15.338Z,101757.47
2023-04-10T07:25:42.702Z,101761.91
2023-04-10T07:28:09.234Z,101762.50
2023-04-10T07:30:35.835Z,101750.94
2023-04-10T07:33:02.468Z,101744.97
2023-04-10T07:35:29.100Z,101752.59
2023-04-10T07:37:55.644Z,101746.94
2023-04-10T07:40:22.104Z,101737.81
2023-04-10T07:42:48.635Z,101735.25
2023-04-10T07:45:15.159Z,101729.06
2023-04-10T07:47:41.875Z,101730.03
2023-04-10T07:50:08.868Z,101738.03
2023-04-10T07:52:35.389Z,101732.69
2023-04-10T07:55:03.448Z,101737.19
2023-04-10T07:57:30.490Z,101733.59
2023-04-10T07:59:57.135Z,101724.50
2023-04-10T08:02:23.828Z,101713.28
2023-04-10T08:04:50.649Z,101711.50
2023-04-10T08:07:18.906Z,101708.44
2023-04-10T08:09:45.351Z,101709.88
2023-04-10T08:12:11.779Z,101705.81
2023-04-10T08:14:38.262Z,101708.78
2023-04-10T08:17:04.839Z,101699.25
2023-04-10T08:19:31.323Z,101703.66
2023-04-10T08:21:57.782Z,101702.63
2023-04-10T08:24:24.376Z,101693.47
2023-04-10T08:26:50.899Z,101704.78
2023-04-10T08:29:17.382Z,101700.53
2023-04-10T08:31:43.890Z,101701.19
2023-04-10T08:34:10.577Z,101702.53
2023-04-10T08:36:37.136Z,101688.00
2023-04-10T08:39:03.615Z,101682.66
2023-04-10T08:41:30.552Z,101677.56
2023-04-10T08:43:57.500Z,101673.22
2023-04-10T08:46:27.741Z,101674.13
2023-04-10T08:49:02.102Z,101677.75
2023-04-10T08:51:42.241Z,101675.41
2023-04-10T08:54:17.539Z,101664.16
2023-04-10T08:56:49.708Z,101669.69
2023-04-10T08:59:16.472Z,101668.22
2023-04-10T09:01:43.176Z,101661.63
2023-04-10T09:04:12.214Z,101667.31
2023-04-10T09:06:39.250Z,101659.31
2023-04-10T09:09:09.583Z,101650.34
2023-04-10T09:11:57.070Z,101650.66
2023-04-10T09:14:32.149Z,101650.91
2023-04-10T09:17:18.733Z,101632.75
2023-04-10T09:19:47.741Z,101631.25
2023-04-10T09:22:14.964Z,101630.03
2023-04-10T09:24:43.798Z,101625.38
2023-04-10T09:27:11.187Z,101624.34
2023-04-10T09:29:45.857Z,101618.03
2023-04-10T09:32:12.675Z,101609.34
2023-04-10T09:34:57.228Z,101605.06
2023-04-10T09:37:31.579Z,101598.81
2023-04-10T09:39:58.112Z,101593.09
2023-04-10T09:42:37.100Z,101583.50
2023-04-10T09:45:05.223Z,101585.88
2023-04-10T09:47:33.162Z,101572.69
2023-04-10T09:50:01.212Z,101575.09
2023-04-10T09:52:29.787Z,101570.94
2023-04-10T09:55:07.641Z,101561.88
2023-04-10T09:57:35.389Z,101560.47
2023-04-10T10:00:05.184Z,101561.44
2023-04-10T10:02:37.254Z,101562.75
2023-04-10T10:05:05.430Z,101551.47
2023-04-10T10:07:32.213Z,101546.25
2023-04-10T10:10:00.616Z,101554.00
2023-04-10T10:12:34.171Z,101553.56
2023-04-10T10:15:28.830Z,101552.78
2023-04-10T10:18:04.089Z,101545.81
2023-04-10T10:20:32.863Z,101542.88
2023-04-10T10:23:03.111Z,101534.91
2023-04-10T10:25:31.531Z,101529.22
2023-04-10T10:28:00.572Z,101521.09
2023-04-10T10:30:30.378Z,101522.03
2023-04-10T10:32:59.594Z,101523.53
2023-04-10T10:35:29.607Z,101506.97
2023-04-10T10:37:59.324Z,101514.69
2023-04-10T10:40:32.791Z,101499.84
2023-04-10T10:43:16.588Z,101498.25
2023-04-10T10:45:56.393Z,101491.63
2023-04-10T10:48:22.940Z,101492.84
2023-04-10T10:51:02.222Z,101486.16
2023-04-10T10:53:43.575Z,101488.38
2023-04-10T10:56:19.267Z,101479.78
2023-04-10T10:58:47.666Z,101475.66
2023-04-10T11:01:14.856Z,101460.97
2023-04-10T11:03:41.919Z,101476.38
2023-04-10T11:06:09.940Z,101464.22
2023-04-10T11:08:44.045Z,101453.63
2023-04-10T11:11:16.113Z,101454.94
2023-04-10T11:13:57.639Z,101446.75
2023-04-10T11:16:43.913Z,101429.56
2023-04-10T11:19:15.904Z,101428.47
2023-04-10T11:22:07.388Z,101431.31
2023-04-10T11:24:53.606Z,101441.53
2023-04-10T11:27:45.034Z,101430.63
2023-04-10T11:30:34.724Z,101430.94
2023-04-10T11:33:03.595Z,101433.28
2023-04-10T11:35:31.799Z,101400.88
2023-04-10T11:38:16.176Z,101392.66
2023-04-10T11:41:04.719Z,101397.44
2023-04-10T11:43:32.393Z,101383.50
2023-04-10T11:46:00.646Z,101394.72
2023-04-10T11:48:29.275Z,101379.41
2023-04-10T11:50:55.958Z,101363.84
2023-04-10T11:53:22.773Z,101381.25
2023-04-10T11:55:49.307Z,101365.63
2023-04-10T11:58:30.668Z,101369.16
2023-04-10T12:00:57.288Z,101365.78
2023-04-10T12:03:41.749Z,101355.69
2023-04-10T12:06:13.730Z,101356.09
2023-04-10T12:08:45.250Z,101342.78
2023-04-10T12:11:12.996Z,101350.59
2023-04-10T12:13:39.960Z,101345.03
2023-04-10T12:16:08.131Z,101334.47
2023-04-10T12:18:34.767Z,101327.91
2023-04-10T12:21:01.917Z,101322.31
2023-04-10T12:23:29.824Z,101312.94
2023-04-10T12:26:16.676Z,101317.22
2023-04-10T12:28:52.520Z,101303.84
2023-04-10T12:31:28.135Z,101304.00
2023-04-10T12:33:57.771Z,101298.56
2023-04-10T12:36:29.829Z,101296.94
2023-04-10T12:38:58.186Z,101299.22
2023-04-10T12:41:35.550Z,101316.78
2023-04-10T12:44:13.655Z,101274.34
2023-04-10T12:46:42.219Z,101287.56
2023-04-10T12:49:27.003Z,101262.81
2023-04-10T12:51:53.625Z,101268.47
2023-04-10T12:54:31.955Z,101257.78
2023-04-10T12:56:59.365Z,101259.69
2023-04-10T12:59:26.619Z,101263.53
2023-04-10T13:01:53.985Z,101252.88
2023-04-10T13:04:21.067Z,101249.28
2023-04-10T13:06:48.670Z,101237.13
2023-04-10T13:09:15.916Z,101219.94
2023-04-10T13:11:42.591Z,101222.66
2023-04-10T13:14:09.353Z,101207.75
2023-04-10T13:16:35.997Z,101223.00
2023-04-10T13:19:02.857Z,101209.69
2023-04-10T13:21:29.771Z,101215.91
2023-04-10T13:23:56.553Z,101210.88
2023-04-10T13:26:24.055Z,101218.31
2023-04-10T13:28:50.785Z,101200.69
2023-04-10T13:31:17.299Z,101201.84
2023-04-10T13:33:48.096Z,101188.09
2023-04-10T13:36:15.575Z,101181.78
2023-04-10T13:38:42.548Z,101181.31
2023-04-10T13:41:09.223Z,101170.38
2023-04-10T13:43:36.727Z,101159.03
2023-04-10T13:46:03.300Z,101159.34
2023-04-10T13:48:37.542Z,101156.59
2023-04-10T13:51:06.762Z,101139.41
2023-04-10T13:53:33.217Z,101129.66
2023-04-10T13:55:59.827Z,101119.50
2023-04-10T13:58:28.569Z,101112.53
2023-04-10T14:00:55.109Z,101107.44
2023-04-10T14:03:21.679Z,101100.03
2023-04-10T14:05:48.399Z,101107.44
2023-04-10T14:08:15.869Z,101100.78
2023-04-10T14:10:42.362Z,101103.47
2023-04-10T14:13:09.382Z,101097.19
2023-04-10T14:15:35.921Z,101098.28
2023-04-10T14:18:02.592Z,101098.66
2023-04-10T14:20:29.211Z,101107.44
2023-04-10T14:22:55.705Z,101108.41
2023-04-10T14:25:22.151Z,101091.34
2023-04-10T14:27:48.614Z,101096.66
2023-04-10T14:30:15.131Z,101096.06
2023-04-10T14:32:41.978Z,101097.06
2023-04-10T14:35:09.211Z,101101.22
2023-04-10T14:37:35.944Z,101086.91
2023-04-10T14:40:04.876Z,101096.94
2023-04-10T14:42:31.420Z,101103.47
2023-04-10T14:45:00.658Z,101106.84
2023-04-10T14:47:27.267Z,101102.84
2023-04-10T14:49:53.808Z,101094.16
2023-04-10T14:52:20.370Z,101094.47
2023-04-10T14:54:46.867Z,101103.69
2023-04-10T14:57:15.159Z,101095.75
2023-04-10T14:59:42.098Z,101110.81
2023-04-10T15:02:08.671Z,101111.41
2023-04-10T15:04:36.061Z,101099.50
2023-04-10T15:07:03.243Z,101103.63
2023-04-10T15:09:29.756Z,101113.22
2023-04-10T15:11:56.894Z,101100.88
2023-04-10T15:14:23.391Z,101096.06
2023-04-10T15:16:50.945Z,101092.69
2023-04-10T15:19:19.179Z,101056.50
2023-04-10T15:21:45.842Z,101040.72
2023-04-10T15:24:12.320Z,101038.19
2023-04-10T15:26:45.042Z,101035.25
2023-04-10T15:29:12.444Z,101036.75
2023-04-10T15:31:39.244Z,101032.38
2023-04-10T15:34:05.813Z,101021.13
2023-04-10T15:36:32.571Z,101032.00
2023-04-10T15:39:03.738Z,101016.50
2023-04-10T15:41:33.180Z,101009.44
2023-04-10T15:43:59.794Z,101004.78
2023-04-10T15:46:27.025Z,100994.25
2023-04-10T15:48:53.629Z,100992.00
2023-04-10T15:51:20.360Z,100989.59
2023-04-10T15:53:46.842Z,100987.66
2023-04-10T15:56:15.937Z,100990.38
2023-04-10T15:58:42.466Z,100989.97
2023-04-10T16:01:08.939Z,100996.91
2023-04-10T16:03:35.994Z,101003.88
2023-04-10T16:06:02.792Z,101006.06
2023-04-10T16:08:29.247Z,101007.09
2023-04-10T16:10:56.298Z,101013.56
2023-04-10T16:13:22.846Z,101005.66
2023-04-10T16:15:50.222Z,101008.56
2023-04-10T16:18:16.795Z,101017.69
2023-04-10T16:20:43.345Z,101014.78
2023-04-10T16:23:10.156Z,101017.34
2023-04-10T16:25:36.720Z,101000.50
2023-04-10T16:28:06.872Z,101002.00
2023-04-10T16:30:36.529Z,100996.13
2023-04-10T16:33:04.301Z,101010.84
2023-04-10T16:35:31.087Z,101001.84
2023-04-10T16:37:57.761Z,100999.78
2023-04-10T16:40:27.628Z,101001.66
2023-04-10T16:42:54.113Z,101006.66
2023-04-10T16:45:20.644Z,101005.75
2023-04-10T16:47:47.268Z,101013.41
2023-04-10T16:50:13.861Z,101007.38
2023-04-10T16:52:40.418Z,101008.88
2023-04-10T16:55:07.338Z,101009.56
2023-04-10T16:57:33.859Z,101009.47
2023-04-10T17:00:00.752Z,101027.59
2023-04-10T17:02:28.413Z,101033.72
2023-04-10T17:04:55.767Z,101023.47
2023-04-10T17:07:23.161Z,101044.31
2023-04-10T17:09:49.716Z,101027.47
2023-04-10T17:12:16.377Z,101029.31
2023-04-10T17:14:42.982Z,101008.94
2023-04-10T17:17:09.587Z,101012.81
2023-04-10T17:19:36.101Z,101015.44
2023-04-10T17:22:02.846Z,101019.59
2023-04-10T17:24:31.463Z,100993.16
2023-04-10T17:26:58.260Z,100995.78
2023-04-10T17:29:25.754Z,100981.72
2023-04-10T17:31:52.304Z,100964.22
2023-04-10T17:34:18.801Z,100971.94
2023-04-10T17:36:45.246Z,100973.50
2023-04-10T17:39:11.711Z,100956.31
2023-04-10T17:41:38.185Z,100967.16
2023-04-10T17:44:05.529Z,100952.50
2023-04-10T17:46:32.025Z,100938.56
2023-04-10T17:49:01.495Z,100928.13
2023-04-10T17:51:28.344Z,100930.84
2023-04-10T17:53:57.692Z,100913.00
2023-04-10T17:56:24.157Z,100897.91
2023-04-10T17:58:53.097Z,100898.72
2023-04-10T18:01:25.731Z,100891.28
2023-04-10T18:03:52.380Z,100900.19
2023-04-10T18:06:19.411Z,100876.91
2023-04-10T18:08:46.017Z,100880.84
2023-04-10T18:11:12.527Z,100887.19
2023-04-10T18:13:38.987Z,100895.31
2023-04-10T18:16:05.957Z,100885.13
2023-04-10T18:18:34.433Z,100886.19
2023-04-10T18:21:08.661Z,100886.06
2023-04-10T18:23:35.355Z,100892.22
2023-04-10T18:26:03.006Z,100888.28
2023-04-10T18:28:29.882Z,100874.69
2023-04-10T18:30:59.567Z,100913.03
2023-04-10T18:33:26.524Z,100929.66
2023-04-10T18:35:57.091Z,100926.94
2023-04-10T18:38:27.169Z,100921.88
2023-04-10T18:40:57.623Z,100912.84
2023-04-10T18:43:27.856Z,100890.34
2023-04-10T18:45:55.178Z,100895.31
2023-04-10T18:48:21.904Z,100903.13
2023-04-10T18:50:52.224Z,100900.75
2023-04-10T18:53:19.225Z,100883.00
2023-04-10T18:55:52.755Z,100885.38
2023-04-10T18:58:21.242Z,100863.28
2023-04-10T19:00:48.382Z,100871.00
2023-04-10T19:03:14.967Z,100891.22
2023-04-10T19:05:42.391Z,100901.66
2023-04-10T19:08:08.960Z,100900.84
2023-04-10T19:10:37.551Z,100903.56
2023-04-10T19:13:04.003Z,100917.94
2023-04-10T19:15:30.620Z,100948.56
2023-04-10T19:17:57.215Z,100942.72
2023-04-10T19:20:50.585Z,100924.50
2023-04-10T19:23:11.157Z,100886.50
2023-04-10T19:25:37.685Z,100863.22
2023-04-10T19:28:04.823Z,100865.13
2023-04-10T19:30:31.885Z,100858.47
2023-04-10T19:32:58.591Z,100858.72
2023-04-10T19:35:25.175Z,100862.47
2023-04-10T19:37:51.629Z,100862.03
2023-04-10T19:40:19.284Z,100860.44
2023-04-10T19:42:45.977Z,100866.53
2023-04-10T19:45:12.798Z,100869.25
2023-04-10T19:47:39.492Z,100870.41
2023-04-10T19:50:06.547Z,100864.09
2023-04-10T19:52:32.998Z,100864.31
2023-04-10T19:54:59.537Z,100863.53
2023-04-10T19:57:26.037Z,100861.63
2023-04-10T19:59:52.584Z,100856.66
2023-04-10T20:02:19.190Z,100868.28
2023-04-10T20:04:48.539Z,100866.25
2023-04-10T20:07:15.372Z,100862.41
2023-04-10T20:09:41.908Z,100867.50
2023-04-10T20:12:09.182Z,100875.66
2023-04-10T20:14:35.635Z,100871.44
2023-04-10T20:17:02.134Z,100864.88
2023-04-10T20:19:28.600Z,100859.09
2023-04-10T20:21:55.279Z,100842.81
2023-04-10T20:24:21.752Z,100837.84
2023-04-10T20:26:48.265Z,100841.69
2023-04-10T20:29:14.734Z,100845.09
2023-04-10T20:31:41.367Z,100847.13
2023-04-10T20:34:07.814Z,100838.19
2023-04-10T20:36:34.986Z,100845.91
2023-04-10T20:39:01.463Z,100847.03
2023-04-10T20:41:28.394Z,100837.66
2023-04-10T20:43:55.859Z,100838.00
2023-04-10T20:46:22.563Z,100849.88
2023-04-10T20:48:49.100Z,100839.38
2023-04-10T20:51:15.558Z,100833.50
2023-04-10T20:53:41.991Z,100836.13
2023-04-10T20:56:08.844Z,100833.63
2023-04-10T20:58:35.302Z,100831.88
2023-04-10T21:01:01.934Z,100826.69
2023-04-10T21:03:29.710Z,100826.91
2023-04-10T21:05:56.436Z,100829.19
2023-04-10T21:08:22.952Z,100824.13
2023-04-10T21:10:49.524Z,100830.56
2023-04-10T21:13:16.110Z,100834.75
2023-04-10T21:15:43.007Z,100811.91
2023-04-10T21:18:09.793Z,100815.88
2023-04-10T21:20:36.795Z,100825.59
2023-04-10T21:23:03.274Z,100824.47
2023-04-10T21:25:31.840Z,100824.13
2023-04-10T21:27:58.371Z,100839.25
2023-04-10T21:30:24.833Z,100825.69
2023-04-10T21:32:51.454Z,100836.66
2023-04-10T21:35:18.179Z,100822.75
2023-04-10T21:37:44.690Z,100825.47
2023-04-10T21:40:11.390Z,100814.28
2023-04-10T21:42:38.838Z,100812.34
2023-04-10T21:45:06.474Z,100812.34
2023-04-10T21:47:32.949Z,100820.13
2023-04-10T21:49:59.391Z,100810.78
2023-04-10T21:52:25.859Z,100809.97
2023-04-10T21:54:52.348Z,100810.78
2023-04-10T21:57:18.780Z,100817.31
2023-04-10T21:59:45.275Z,100821.97
2023-04-10T22:02:12.801Z,100825.13
2023-04-10T22:04:47.956Z,100818.91
2023-04-10T22:07:21.057Z,100818.56
2023-04-10T22:09:47.575Z,100817.78
2023-04-10T22:12:14.161Z,100803.44
2023-04-10T22:14:41.304Z,100814.28
2023-04-10T22:17:07.995Z,100804.22
2023-04-10T22:19:34.590Z,100818.47
2023-04-10T22:22:01.027Z,100821.19
2023-04-10T22:24:27.517Z,100804.22
2023-04-10T22:26:53.992Z,100823.97
2023-04-10T22:29:20.453Z,100837.88
2023-04-10T22:31:46.916Z,100881.63
2023-04-10T22:34:13.427Z,100859.94
2023-04-10T22:36:40.100Z,100864.00
2023-04-10T22:39:06.562Z,100856.28
2023-04-10T22:41:33.070Z,100850.38
2023-04-10T22:43:59.865Z,100847.31
2023-04-10T22:46:26.388Z,100858.56
2023-04-10T22:48:54.809Z,100845.13
2023-04-10T22:51:21.388Z,100836.75
2023-04-10T22:53:47.830Z,100821.53
2023-04-10T22:56:14.445Z,100840.31
2023-04-10T22:58:41.089Z,100829.94
2023-04-10T23:01:08.318Z,100826.97
2023-04-10T23:03:35.472Z,100826.06
2023-04-10T23:06:02.451Z,100835.97
2023-04-10T23:08:28.999Z,100838.84
2023-04-10T23:10:55.741Z,100833.16
2023-04-10T23:13:22.533Z,100834.00
2023-04-10T23:15:53.780Z,100832.41
2023-04-10T23:18:20.591Z,100841.81
2023-04-10T23:20:47.994Z,100842.72
2023-04-10T23:23:15.519Z,100846.25
2023-04-10T23:25:42.491Z,100844.84
2023-04-10T23:28:08.986Z,100840.41
2023-04-10T23:30:39.149Z,100842.53
2023-04-10T23:33:05.670Z,100842.25
2023-04-10T23:35:32.302Z,100842.56
2023-04-10T23:37:58.762Z,100834.31
2023-04-10T23:40:25.319Z,100842.75
2023-04-10T23:42:51.757Z,100843.22
2023-04-10T23:45:18.303Z,100841.13
2023-04-10T23:47:44.758Z,100833.84
2023-04-10T23:50:11.374Z,100834.59
2023-04-10T23:52:37.817Z,100841.53
2023-04-10T23:55:04.742Z,100821.09
2023-04-10T23:57:31.234Z,100824.09
2023-04-10T23:59:57.682Z,100817.03
